< < Back
Terminal Aerodrome Forecast


Current Version              Previous Versions:   1  2  3  4  5  6  7  8  9  

Terminal Aerodrome Forecast

082
FTUS42 KJAX 130525
TAFJAX
TAF
KJAX 130525Z 1306/1406 26010KT P6SM SKC
     FM130900 32008KT P6SM SKC
     FM131500 34012G20KT P6SM SKC
     FM132100 35010KT P6SM SKC
     FM140000 VRB03KT P6SM SKC=

Latest METAR

776
SAUS80 KWBC 132300
MTRJAX
METAR KJAX 132256Z 08006KT 10SM CLR 11/02 A3027 RMK AO2 SLP249
T01060022


USA.gov is the U.S. government's official web portal to all federal, state and local government web resources and services.